Time;durP1;ratioP1;P1;durP2;ratioP2;P2;SDS_P1;SDS_P2;PMS_P1;PMS_P2;Temp;Humidity;BMP_temperature;BMP_pressure;BME280_temperature;BME280_humidity;BME280_pressure;Samples;Min_cycle;Max_cycle;Signal;HPM_P1;HPM_P2
2021/08/10 00:00:56;;;;;;;6.32;3.30;;;;;;;21.55;86.50;100634.66;5128955;27;20419;-62
2021/08/10 00:03:21;;;;;;;7.85;3.53;;;;;;;21.53;86.58;100639.47;5130896;28;20077;-63
2021/08/10 00:05:50;;;;;;;4.60;3.00;;;;;;;21.45;86.45;100637.75;5130479;28;20057;-62
2021/08/10 00:08:20;;;;;;;6.28;3.72;;;;;;;21.44;85.86;100633.31;5130493;28;20027;-62
2021/08/10 00:10:47;;;;;;;5.20;3.50;;;;;;;21.41;85.72;100635.59;5130602;28;20015;-62
2021/08/10 00:13:15;;;;;;;4.53;2.90;;;;;;;21.35;85.66;100625.47;5130247;28;20080;-64
2021/08/10 00:15:40;;;;;;;5.45;3.00;;;;;;;21.35;85.86;100628.19;5130979;28;20550;-63
2021/08/10 00:18:06;;;;;;;5.60;3.28;;;;;;;21.33;85.99;100631.13;5130266;28;20027;-63
2021/08/10 00:20:32;;;;;;;5.60;3.53;;;;;;;21.27;86.01;100631.06;5130369;28;20024;-61
2021/08/10 00:22:58;;;;;;;8.70;3.08;;;;;;;21.25;86.57;100633.16;5130720;28;20019;-62
2021/08/10 00:25:24;;;;;;;7.05;3.63;;;;;;;21.15;86.92;100622.56;5130194;28;20618;-62
2021/08/10 00:27:50;;;;;;;6.38;3.38;;;;;;;21.22;87.16;100633.53;5130578;27;20031;-63
2021/08/10 00:30:15;;;;;;;4.15;3.42;;;;;;;21.19;87.12;100634.78;5130224;28;20019;-63
2021/08/10 00:32:41;;;;;;;5.97;3.53;;;;;;;21.16;87.03;100632.44;5130088;28;20451;-63
2021/08/10 00:35:07;;;;;;;8.45;3.55;;;;;;;21.14;86.98;100633.66;5133452;27;20252;-63
2021/08/10 00:37:32;;;;;;;5.30;3.35;;;;;;;21.11;87.19;100636.78;5134108;27;20530;-63
2021/08/10 00:39:58;;;;;;;4.75;3.20;;;;;;;21.13;87.07;100640.16;5134087;27;20470;-63
2021/08/10 00:42:23;;;;;;;4.57;3.10;;;;;;;20.99;87.00;100620.06;5134008;27;20103;-63
2021/08/10 00:44:49;;;;;;;4.93;3.67;;;;;;;21.07;87.07;100643.66;5133789;27;20027;-63
2021/08/10 00:47:14;;;;;;;5.07;3.70;;;;;;;20.98;86.46;100626.59;5133797;27;20035;-63
2021/08/10 00:49:40;;;;;;;5.63;3.38;;;;;;;21.00;86.45;100638.16;5132506;27;20027;-63
2021/08/10 00:52:06;;;;;;;3.97;3.10;;;;;;;20.98;86.31;100633.91;5133834;27;20046;-63
2021/08/10 00:54:32;;;;;;;7.40;3.60;;;;;;;20.92;86.27;100627.31;5133796;27;20027;-63
2021/08/10 00:56:57;;;;;;;5.20;3.47;;;;;;;20.92;86.50;100638.22;5131900;27;20031;-63
2021/08/10 00:59:23;;;;;;;4.70;3.60;;;;;;;20.84;86.77;100629.31;5133838;27;20015;-64
2021/08/10 01:01:49;;;;;;;4.32;3.88;;;;;;;20.87;87.03;100637.97;5133498;27;20478;-63
2021/08/10 01:04:14;;;;;;;3.50;3.10;;;;;;;20.82;87.06;100628.66;5132201;27;20027;-63
2021/08/10 01:06:59;;;;;;;6.28;3.38;;;;;;;20.76;86.86;100621.28;5133869;27;20027;-64
2021/08/10 01:09:52;;;;;;;5.15;3.75;;;;;;;20.68;87.33;100615.94;5132375;27;20056;-64
2021/08/10 01:12:43;;;;;;;6.65;3.90;;;;;;;20.71;87.90;100627.31;5133061;27;20137;-63
2021/08/10 01:15:17;;;;;;;4.30;3.00;;;;;;;20.76;88.07;100645.81;5133224;27;20489;-63
2021/08/10 01:17:52;;;;;;;7.47;3.80;;;;;;;20.73;88.18;100640.75;5132213;27;20090;-63
2021/08/10 01:20:17;;;;;;;4.50;3.50;;;;;;;20.71;87.99;100648.25;5133015;27;20029;-64
2021/08/10 01:22:47;;;;;;;4.53;3.38;;;;;;;20.71;88.09;100642.81;5133317;27;20102;-63
2021/08/10 01:25:50;;;;;;;6.28;3.50;;;;;;;20.71;88.12;100645.53;5133019;27;20023;-63
2021/08/10 01:28:34;;;;;;;6.55;3.60;;;;;;;20.69;88.00;100644.88;5131568;27;20520;-63
2021/08/10 01:31:02;;;;;;;8.18;4.07;;;;;;;20.69;87.95;100644.88;5133175;27;20536;-61
2021/08/10 01:33:31;;;;;;;4.82;3.33;;;;;;;20.68;87.24;100641.31;5131164;27;20081;-63
2021/08/10 01:35:58;;;;;;;5.03;3.83;;;;;;;20.64;87.81;100647.34;5133215;27;20030;-62
2021/08/10 01:38:26;;;;;;;8.57;4.15;;;;;;;20.60;88.08;100649.59;5132981;27;20050;-63
2021/08/10 01:40:52;;;;;;;4.68;3.42;;;;;;;20.55;88.30;100643.03;5132811;27;20144;-62
2021/08/10 01:43:19;;;;;;;5.05;3.35;;;;;;;20.51;88.29;100645.31;5132674;27;20019;-62
2021/08/10 01:45:47;;;;;;;7.40;3.80;;;;;;;20.52;88.60;100648.84;5132258;27;20027;-63
2021/08/10 01:48:13;;;;;;;8.68;3.80;;;;;;;20.43;88.82;100639.94;5132499;27;20496;-62
2021/08/10 01:50:39;;;;;;;5.82;3.88;;;;;;;20.44;88.57;100648.97;5131459;27;20030;-62
2021/08/10 01:53:07;;;;;;;5.22;3.78;;;;;;;20.40;88.47;100644.91;5131285;27;20023;-63
2021/08/10 01:55:34;;;;;;;4.32;3.60;;;;;;;20.44;88.47;100648.97;5132403;27;20504;-63
2021/08/10 01:58:00;;;;;;;4.85;3.42;;;;;;;20.41;88.48;100655.63;5131172;27;20037;-63
2021/08/10 02:00:26;;;;;;;7.03;3.70;;;;;;;20.37;89.22;100658.94;5132498;27;20054;-62
2021/08/10 02:02:52;;;;;;;5.03;3.42;;;;;;;20.37;89.40;100661.69;5132061;27;20051;-62
2021/08/10 02:05:21;;;;;;;9.20;4.10;;;;;;;20.25;89.43;100635.94;5131599;27;20023;-63
2021/08/10 02:07:46;;;;;;;5.93;3.90;;;;;;;20.36;89.44;100649.06;5131361;27;20106;-63
2021/08/10 02:10:14;;;;;;;5.45;3.72;;;;;;;20.32;89.37;100642.31;5131580;27;20525;-63
2021/08/10 02:12:40;;;;;;;10.52;4.53;;;;;;;20.35;89.21;100650.13;5131680;27;20506;-63
2021/08/10 02:15:06;;;;;;;8.75;4.72;;;;;;;20.30;88.93;100647.94;5131657;27;20375;-62
2021/08/10 02:17:31;;;;;;;4.97;3.95;;;;;;;20.31;89.42;100655.06;5131585;27;20028;-62
2021/08/10 02:19:57;;;;;;;8.52;3.78;;;;;;;20.32;88.83;100653.22;5131892;27;20042;-62
2021/08/10 02:22:23;;;;;;;4.57;3.28;;;;;;;20.33;89.16;100663.06;5131905;27;20046;-62
2021/08/10 02:25:05;;;;;;;7.15;4.28;;;;;;;20.27;89.18;100656.50;5131897;27;20030;-63
2021/08/10 02:27:37;;;;;;;7.72;3.83;;;;;;;20.26;88.78;100651.25;5131808;27;20042;-63
2021/08/10 02:30:11;;;;;;;7.00;4.20;;;;;;;20.28;88.67;100649.19;5131789;27;20050;-62
2021/08/10 02:32:39;;;;;;;5.95;4.13;;;;;;;20.22;88.89;100645.34;5131679;27;20050;-62
2021/08/10 02:35:07;;;;;;;8.65;3.95;;;;;;;20.25;89.06;100652.28;5131474;27;20498;-62
2021/08/10 02:37:34;;;;;;;5.28;3.90;;;;;;;20.19;89.24;100648.44;5131507;27;20020;-63
2021/08/10 02:40:04;;;;;;;5.88;3.67;;;;;;;20.15;89.44;100658.84;5131917;27;20022;-62
2021/08/10 02:42:30;;;;;;;4.70;4.15;;;;;;;20.17;89.31;100664.97;5131276;27;20390;-62
2021/08/10 02:44:59;;;;;;;6.22;4.75;;;;;;;20.18;89.52;100660.34;5131855;27;20143;-62
2021/08/10 02:47:25;;;;;;;7.03;3.97;;;;;;;20.19;89.60;100673.78;5131784;27;20530;-62
2021/08/10 02:49:51;;;;;;;4.22;3.63;;;;;;;20.11;89.46;100668.44;5130283;27;20031;-62
2021/08/10 02:52:16;;;;;;;5.97;3.80;;;;;;;20.12;89.43;100672.84;5131529;27;20394;-62
2021/08/10 02:54:43;;;;;;;7.40;3.85;;;;;;;20.09;89.30;100675.09;5131534;27;20019;-62
2021/08/10 02:57:20;;;;;;;7.30;4.10;;;;;;;20.07;89.50;100667.09;5130693;27;20439;-62
2021/08/10 02:59:50;;;;;;;5.40;4.30;;;;;;;20.06;89.46;100675.44;5132047;27;20474;-61
2021/08/10 03:02:19;;;;;;;5.72;4.43;;;;;;;20.04;89.51;100680.22;5131463;27;20019;-62
2021/08/10 03:04:58;;;;;;;6.25;3.80;;;;;;;20.04;89.86;100685.66;5131160;27;20072;-62
2021/08/10 03:07:25;;;;;;;6.22;3.88;;;;;;;19.97;90.00;100671.13;5131492;27;20551;-62
2021/08/10 03:09:55;;;;;;;5.50;4.53;;;;;;;20.00;90.01;100676.19;5131411;27;20529;-61
2021/08/10 03:12:24;;;;;;;7.53;4.35;;;;;;;19.92;90.08;100662.66;5131212;27;20343;-62
2021/08/10 03:14:52;;;;;;;5.85;4.30;;;;;;;19.96;90.12;100678.44;5131037;27;20023;-62
2021/08/10 03:17:19;;;;;;;6.22;4.28;;;;;;;19.89;90.15;100661.16;5131012;27;20347;-62
2021/08/10 03:19:45;;;;;;;8.23;4.85;;;;;;;19.95;89.95;100678.63;5131176;27;20074;-62
2021/08/10 03:22:13;;;;;;;5.70;4.25;;;;;;;19.93;89.90;100681.53;5130501;27;20570;-61
2021/08/10 03:24:40;;;;;;;7.28;4.97;;;;;;;19.93;90.07;100683.41;5130600;27;20423;-62
2021/08/10 03:27:07;;;;;;;5.78;4.40;;;;;;;19.84;89.78;100679.09;5130795;27;20420;-62
2021/08/10 03:29:34;;;;;;;10.43;5.03;;;;;;;19.90;90.06;100690.06;5130940;27;20039;-63
2021/08/10 03:32:01;;;;;;;9.55;4.88;;;;;;;19.89;90.14;100687.53;5130744;27;20035;-63
2021/08/10 03:34:28;;;;;;;6.10;4.75;;;;;;;19.84;90.27;100687.25;5131176;27;20045;-63
2021/08/10 03:36:54;;;;;;;5.50;4.30;;;;;;;19.86;90.01;100690.63;5131090;27;20027;-63
2021/08/10 03:39:20;;;;;;;5.72;4.57;;;;;;;19.84;89.87;100685.38;5130436;27;20027;-63
2021/08/10 03:41:46;;;;;;;5.63;4.50;;;;;;;19.82;89.79;100687.44;5128133;28;20763;-63
2021/08/10 03:44:13;;;;;;;7.93;4.35;;;;;;;19.81;89.68;100687.63;5130911;28;20474;-63
2021/08/10 03:46:39;;;;;;;6.13;4.88;;;;;;;19.80;89.63;100694.94;5130534;27;20480;-64
2021/08/10 03:49:05;;;;;;;4.93;4.18;;;;;;;19.78;89.28;100696.16;5130274;28;20065;-63
2021/08/10 03:51:31;;;;;;;5.60;4.05;;;;;;;19.77;89.33;100694.47;5130904;28;20027;-64
2021/08/10 03:53:56;;;;;;;5.78;4.40;;;;;;;19.71;89.47;100696.06;5130639;27;20034;-64
2021/08/10 03:56:24;;;;;;;6.45;4.57;;;;;;;19.75;89.59;100700.09;5130409;27;20015;-64
2021/08/10 03:58:53;;;;;;;8.07;4.75;;;;;;;19.74;89.81;100705.72;5130395;28;20098;-64
2021/08/10 04:01:23;;;;;;;6.70;4.68;;;;;;;19.72;89.72;100705.91;5130202;28;20464;-63
2021/08/10 04:03:49;;;;;;;5.50;5.00;;;;;;;19.75;89.92;100707.41;5127666;28;20019;-63
2021/08/10 04:06:16;;;;;;;7.32;4.75;;;;;;;19.69;89.96;100699.97;5130438;28;20034;-63
2021/08/10 04:08:42;;;;;;;16.50;6.10;;;;;;;19.75;90.45;100705.53;5131398;27;20088;-62
2021/08/10 04:11:08;;;;;;;9.02;5.75;;;;;;;19.72;90.96;100696.88;5134744;27;20031;-63
2021/08/10 04:13:35;;;;;;;11.35;5.97;;;;;;;19.77;91.19;100706.19;5134689;27;20029;-63
2021/08/10 04:16:03;;;;;;;9.38;5.32;;;;;;;19.75;90.95;100694.66;5134615;27;20034;-63
2021/08/10 04:18:30;;;;;;;16.02;6.60;;;;;;;19.86;91.17;100706.94;5134881;27;20576;-63
2021/08/10 04:20:56;;;;;;;14.82;6.88;;;;;;;19.92;91.01;100709.78;5134685;27;20021;-63
2021/08/10 04:23:24;;;;;;;10.75;6.50;;;;;;;20.04;90.61;100719.22;5134322;27;20106;-63
2021/08/10 04:25:50;;;;;;;13.80;6.75;;;;;;;20.12;89.83;100710.16;5134853;27;20029;-63
2021/08/10 04:28:16;;;;;;;11.02;6.72;;;;;;;20.27;88.79;100710.97;5134674;27;20027;-63
2021/08/10 04:30:42;;;;;;;8.18;5.53;;;;;;;20.39;87.84;100703.19;5134994;27;20035;-63
2021/08/10 04:33:09;;;;;;;8.55;4.88;;;;;;;20.56;86.75;100712.84;5133003;27;20130;-64
2021/08/10 04:35:35;;;;;;;9.95;5.47;;;;;;;20.67;86.36;100715.94;5134502;27;20393;-64
2021/08/10 04:38:03;;;;;;;7.32;5.53;;;;;;;20.76;85.76;100700.34;5134584;27;20398;-63
2021/08/10 04:40:29;;;;;;;9.18;4.97;;;;;;;20.87;85.09;100699.84;5134506;27;20441;-63
2021/08/10 04:42:55;;;;;;;10.63;5.53;;;;;;;21.04;84.65;100710.38;5134517;27;20098;-63
2021/08/10 04:45:22;;;;;;;6.30;4.97;;;;;;;21.18;83.51;100716.81;5134365;27;20585;-62
2021/08/10 04:47:48;;;;;;;12.63;6.05;;;;;;;21.30;82.25;100712.53;5132959;27;20019;-62
2021/08/10 04:50:13;;;;;;;8.35;5.20;;;;;;;21.39;81.13;100700.44;5131032;27;20023;-62
2021/08/10 04:52:39;;;;;;;6.85;5.25;;;;;;;21.58;80.34;100710.72;5131105;27;20027;-63
2021/08/10 04:55:06;;;;;;;6.03;4.97;;;;;;;21.71;78.91;100703.50;5132835;27;20034;-62
2021/08/10 04:57:32;;;;;;;9.98;5.03;;;;;;;21.89;77.73;100709.34;5132931;27;20015;-62
2021/08/10 04:59:57;;;;;;;6.60;5.05;;;;;;;22.07;76.01;100700.66;5128325;27;20447;-62
2021/08/10 05:02:23;;;;;;;9.77;4.93;;;;;;;22.27;75.80;100698.88;5129399;27;20089;-62
2021/08/10 05:04:48;;;;;;;5.90;4.18;;;;;;;22.55;74.67;100694.25;5131135;27;20110;-62
2021/08/10 05:07:14;;;;;;;6.93;3.78;;;;;;;22.89;71.94;100696.91;5131078;27;20070;-62
2021/08/10 05:09:41;;;;;;;9.15;4.05;;;;;;;23.20;69.54;100693.66;5130580;27;20031;-62
2021/08/10 05:12:07;;;;;;;10.65;3.88;;;;;;;23.36;67.38;100694.16;5128490;27;20026;-63
2021/08/10 05:14:33;;;;;;;8.10;3.10;;;;;;;23.45;66.71;100681.09;5133371;27;20023;-62
2021/08/10 05:16:58;;;;;;;6.50;3.88;;;;;;;23.61;66.35;100695.25;5133919;27;20110;-64
2021/08/10 05:19:24;;;;;;;7.43;3.30;;;;;;;23.71;65.83;100687.44;5133459;27;20034;-63
2021/08/10 05:21:49;;;;;;;4.85;2.70;;;;;;;23.71;64.12;100662.78;5130358;27;20068;-64
2021/08/10 05:24:15;;;;;;;15.27;3.80;;;;;;;23.94;63.65;100685.16;5131492;27;20015;-63
2021/08/10 05:26:40;;;;;;;4.90;2.67;;;;;;;24.08;62.86;100683.22;5132809;27;20012;-63
2021/08/10 05:29:06;;;;;;;8.18;3.05;;;;;;;24.17;62.05;100685.53;5133803;27;20031;-63
2021/08/10 05:31:31;;;;;;;7.38;2.33;;;;;;;24.24;61.40;100669.91;5133250;27;20038;-64
2021/08/10 05:33:57;;;;;;;6.20;2.70;;;;;;;24.41;61.08;100676.59;5133058;27;20066;-64
2021/08/10 05:36:22;;;;;;;7.55;3.08;;;;;;;24.56;60.36;100683.75;5132719;27;20019;-64
2021/08/10 05:38:50;;;;;;;6.40;2.67;;;;;;;24.66;59.94;100685.00;5131870;27;20031;-64
2021/08/10 05:41:16;;;;;;;3.67;2.10;;;;;;;24.78;59.98;100682.41;5133226;27;20028;-62
2021/08/10 05:43:41;;;;;;;6.50;2.45;;;;;;;24.92;59.92;100681.31;5132951;27;20382;-62
2021/08/10 05:46:07;;;;;;;4.70;2.78;;;;;;;25.05;59.90;100684.00;5133036;27;20022;-63
2021/08/10 05:48:32;;;;;;;6.88;2.13;;;;;;;25.17;59.77;100682.22;5133133;27;20031;-62
2021/08/10 05:51:00;;;;;;;7.05;2.45;;;;;;;25.32;60.08;100685.53;5133014;27;20080;-63
2021/08/10 05:53:25;;;;;;;4.97;2.70;;;;;;;25.47;59.73;100686.09;5132912;27;20462;-62
2021/08/10 05:55:51;;;;;;;3.83;2.10;;;;;;;25.59;59.44;100687.03;5132797;27;20031;-63
2021/08/10 05:58:16;;;;;;;4.63;2.67;;;;;;;25.72;59.51;100690.53;5132655;27;20019;-62
2021/08/10 06:00:41;;;;;;;6.40;2.83;;;;;;;25.86;59.42;100689.34;5132953;27;20030;-63
2021/08/10 06:03:07;;;;;;;7.43;3.08;;;;;;;25.96;59.44;100695.16;5132786;27;20470;-62
2021/08/10 06:05:33;;;;;;;5.25;2.58;;;;;;;26.11;59.04;100705.84;5132560;27;20475;-63
2021/08/10 06:07:59;;;;;;;4.47;2.78;;;;;;;26.18;58.75;100687.41;5133051;27;20027;-62
2021/08/10 06:10:25;;;;;;;3.85;2.65;;;;;;;26.37;58.60;100697.34;5132326;27;20118;-62
2021/08/10 06:12:50;;;;;;;7.93;2.97;;;;;;;26.51;57.69;100704.41;5132710;27;20023;-62
2021/08/10 06:15:16;;;;;;;3.90;2.25;;;;;;;26.63;56.21;100697.06;5132325;27;20023;-62
2021/08/10 06:17:41;;;;;;;4.38;2.05;;;;;;;26.74;55.94;100689.97;5132342;27;20046;-62
2021/08/10 06:20:08;;;;;;;6.38;2.10;;;;;;;26.91;55.68;100680.00;5131955;27;20052;-62
2021/08/10 06:22:33;;;;;;;3.38;2.20;;;;;;;27.06;55.54;100681.28;5132683;27;20019;-63
2021/08/10 06:24:59;;;;;;;4.35;2.13;;;;;;;27.13;54.55;100664.66;5132277;27;20035;-61
2021/08/10 06:27:25;;;;;;;6.47;2.13;;;;;;;27.34;53.43;100678.78;5130652;27;20371;-61
2021/08/10 06:29:50;;;;;;;3.42;1.90;;;;;;;27.42;53.64;100670.19;5132084;27;20509;-63
2021/08/10 06:32:16;;;;;;;3.47;1.98;;;;;;;27.60;53.44;100686.63;5131957;27;20131;-62
2021/08/10 06:34:41;;;;;;;8.35;1.90;;;;;;;27.72;52.42;100667.34;5130381;27;20076;-62
2021/08/10 06:37:07;;;;;;;2.70;1.85;;;;;;;27.91;52.21;100677.25;5132194;27;20386;-62
2021/08/10 06:39:33;;;;;;;7.68;1.95;;;;;;;28.07;51.83;100671.03;5132329;27;20015;-62
2021/08/10 06:41:58;;;;;;;3.45;1.70;;;;;;;28.25;51.59;100685.53;5132120;27;20089;-62
2021/08/10 06:44:24;;;;;;;6.60;2.00;;;;;;;28.43;50.46;100668.00;5131913;27;20568;-63
2021/08/10 06:46:49;;;;;;;6.35;1.80;;;;;;;28.54;49.08;100673.53;5131932;27;20030;-63
2021/08/10 06:49:15;;;;;;;2.08;1.50;;;;;;;28.69;48.98;100674.97;5131567;27;20042;-63
2021/08/10 06:51:40;;;;;;;3.30;1.85;;;;;;;28.79;48.89;100666.88;5131671;27;20019;-63
2021/08/10 06:54:06;;;;;;;5.28;2.22;;;;;;;28.95;48.45;100672.44;5130424;27;20023;-63
2021/08/10 06:56:31;;;;;;;4.63;1.58;;;;;;;29.09;47.65;100662.00;5131739;27;20382;-64
2021/08/10 06:58:57;;;;;;;7.30;1.95;;;;;;;29.21;47.04;100662.78;5131895;27;20052;-62
2021/08/10 07:01:22;;;;;;;5.40;1.58;;;;;;;29.39;45.85;100668.94;5131628;27;20083;-63
2021/08/10 07:03:48;;;;;;;3.20;1.70;;;;;;;29.51;45.49;100663.34;5131380;27;20023;-63
2021/08/10 07:06:13;;;;;;;4.35;1.40;;;;;;;29.54;45.03;100657.31;5131547;27;20019;-63
2021/08/10 07:08:39;;;;;;;2.78;1.50;;;;;;;29.77;44.84;100669.09;5131728;27;20031;-63
2021/08/10 07:11:05;;;;;;;4.45;1.58;;;;;;;29.93;44.28;100664.63;5131611;27;20019;-63
2021/08/10 07:13:30;;;;;;;3.88;1.42;;;;;;;30.07;43.84;100672.34;5131401;27;20516;-63
2021/08/10 07:15:56;;;;;;;5.53;1.50;;;;;;;30.22;43.59;100669.00;5131434;27;20027;-62
2021/08/10 07:18:21;;;;;;;3.70;1.38;;;;;;;30.32;43.77;100670.00;5131096;27;20042;-63
2021/08/10 07:20:47;;;;;;;5.60;1.77;;;;;;;30.50;43.36;100660.56;5131436;27;20508;-63
2021/08/10 07:23:12;;;;;;;2.40;1.30;;;;;;;30.60;42.78;100666.22;5130272;27;20079;-62
2021/08/10 07:25:38;;;;;;;2.78;1.50;;;;;;;30.66;42.14;100653.28;5131260;27;20019;-63
2021/08/10 07:28:04;;;;;;;4.68;1.90;;;;;;;30.81;41.21;100662.63;5131895;27;20446;-63
2021/08/10 07:30:29;;;;;;;9.07;2.20;;;;;;;30.91;41.42;100661.94;5131004;27;20050;-63
2021/08/10 07:32:55;;;;;;;4.05;1.73;;;;;;;30.93;41.24;100655.03;5131018;27;20046;-63
2021/08/10 07:35:20;;;;;;;4.30;1.95;;;;;;;31.03;41.26;100660.69;5130846;27;20386;-62
2021/08/10 07:37:47;;;;;;;5.05;2.10;;;;;;;31.08;40.51;100649.66;5131028;27;20031;-63
2021/08/10 07:40:14;;;;;;;2.70;1.80;;;;;;;31.19;40.49;100661.69;5129570;27;20420;-63
2021/08/10 07:42:39;;;;;;;1.40;1.30;;;;;;;31.26;40.12;100662.31;5122546;27;20046;-63
2021/08/10 07:45:06;;;;;;;2.67;1.23;;;;;;;31.35;40.04;100663.56;5129391;28;20139;-63
2021/08/10 07:47:34;;;;;;;5.63;1.33;;;;;;;31.39;39.92;100654.47;5130590;27;20034;-63
2021/08/10 07:50:00;;;;;;;4.45;1.55;;;;;;;31.51;39.63;100655.13;5130843;28;20027;-63
2021/08/10 07:52:25;;;;;;;4.75;1.90;;;;;;;31.52;39.11;100648.47;5130726;28;20523;-61
2021/08/10 07:54:51;;;;;;;6.45;1.92;;;;;;;31.54;39.43;100654.59;5129951;28;20046;-62
2021/08/10 07:57:16;;;;;;;5.13;1.58;;;;;;;31.56;39.43;100646.84;5128788;28;20031;-62
2021/08/10 07:59:42;;;;;;;2.38;1.30;;;;;;;31.68;39.11;100650.28;5130629;27;20072;-63
2021/08/10 08:02:08;;;;;;;2.70;1.33;;;;;;;31.71;39.10;100643.38;5130747;28;20015;-63
2021/08/10 08:04:34;;;;;;;3.53;1.15;;;;;;;31.82;38.21;100654.31;5130400;28;20023;-64
2021/08/10 08:07:01;;;;;;;2.75;1.33;;;;;;;31.90;38.38;100642.72;5130504;27;20052;-63
2021/08/10 08:09:27;;;;;;;1.58;1.20;;;;;;;31.99;37.09;100648.63;5130791;27;20058;-63
2021/08/10 08:11:52;;;;;;;2.35;1.42;;;;;;;32.08;37.10;100652.59;5130093;27;20047;-64
2021/08/10 08:14:20;;;;;;;1.42;1.33;;;;;;;32.11;36.75;100647.31;5129248;28;20495;-62
2021/08/10 08:16:47;;;;;;;1.17;1.00;;;;;;;32.20;36.55;100655.97;5130534;27;20781;-63
2021/08/10 08:19:12;;;;;;;4.25;1.27;;;;;;;32.26;36.44;100652.13;5130631;28;20019;-63
2021/08/10 08:21:38;;;;;;;1.80;1.08;;;;;;;32.34;36.73;100646.94;5130858;28;20068;-63
2021/08/10 08:24:04;;;;;;;4.82;1.23;;;;;;;32.44;36.42;100644.22;5130492;28;20026;-63
2021/08/10 08:26:29;;;;;;;3.38;1.40;;;;;;;32.51;36.41;100638.41;5130103;27;20474;-63
2021/08/10 08:28:55;;;;;;;2.78;1.42;;;;;;;32.60;36.55;100640.41;5131060;27;20027;-63
2021/08/10 08:31:21;;;;;;;3.40;1.10;;;;;;;32.69;36.32;100649.03;5130575;27;20487;-63
2021/08/10 08:33:46;;;;;;;2.67;1.50;;;;;;;32.78;35.86;100641.88;5130152;28;20054;-63
2021/08/10 08:36:12;;;;;;;3.35;1.20;;;;;;;32.86;35.28;100646.94;5130549;28;20477;-64
2021/08/10 08:38:37;;;;;;;3.38;1.42;;;;;;;32.87;35.44;100640.25;5130823;28;20038;-62
2021/08/10 08:41:04;;;;;;;3.08;1.30;;;;;;;32.95;35.40;100639.75;5130101;28;20019;-64
2021/08/10 08:43:29;;;;;;;1.52;1.20;;;;;;;32.99;35.52;100631.69;5130530;28;20083;-63
2021/08/10 08:45:55;;;;;;;2.03;1.20;;;;;;;33.05;34.48;100639.78;5129444;27;20534;-63
2021/08/10 08:48:23;;;;;;;3.13;1.50;;;;;;;33.05;35.00;100625.88;5129245;28;20670;-63
2021/08/10 08:50:50;;;;;;;5.10;1.27;;;;;;;33.15;34.89;100641.75;5130372;28;20023;-63
2021/08/10 08:53:16;;;;;;;4.32;1.33;;;;;;;33.18;35.04;100632.84;5130419;27;20386;-64
2021/08/10 08:55:44;;;;;;;3.28;1.30;;;;;;;33.21;34.51;100635.94;5130970;27;20019;-63
2021/08/10 08:58:10;;;;;;;2.55;1.30;;;;;;;33.19;34.47;100631.72;5134246;27;20019;-63
2021/08/10 09:00:35;;;;;;;7.70;2.13;;;;;;;33.20;34.13;100628.66;5132294;27;20038;-64
2021/08/10 09:03:01;;;;;;;8.30;1.50;;;;;;;33.18;33.79;100636.47;5133757;27;20027;-64
2021/08/10 09:05:26;;;;;;;2.33;1.40;;;;;;;33.18;33.66;100624.50;5133649;27;20428;-63
2021/08/10 09:07:55;;;;;;;1.40;1.30;;;;;;;33.20;33.51;100636.19;5133769;27;20055;-62
2021/08/10 09:10:28;;;;;;;2.97;1.40;;;;;;;33.12;33.82;100625.59;5133414;27;20420;-64
2021/08/10 09:12:56;;;;;;;3.60;1.40;;;;;;;33.16;33.62;100640.63;5133517;27;20023;-63
2021/08/10 09:15:40;;;;;;;2.70;1.42;;;;;;;33.17;33.46;100633.97;5133526;27;20486;-63
2021/08/10 09:18:16;;;;;;;2.15;1.23;;;;;;;33.12;33.54;100629.22;5133340;27;20118;-64
2021/08/10 09:21:02;;;;;;;1.30;1.20;;;;;;;33.13;33.69;100639.22;5133660;27;20359;-63
2021/08/10 09:23:48;;;;;;;2.78;1.42;;;;;;;33.11;34.24;100635.06;5133177;27;20019;-63
2021/08/10 09:26:21;;;;;;;6.10;1.80;;;;;;;33.06;34.21;100630.31;5132828;27;20019;-63
2021/08/10 09:28:48;;;;;;;2.05;1.45;;;;;;;33.10;34.01;100630.59;5132924;27;20037;-64
2021/08/10 09:31:32;;;;;;;3.25;1.20;;;;;;;33.09;34.42;100640.06;5133216;27;20542;-64
2021/08/10 09:34:03;;;;;;;2.47;1.30;;;;;;;33.03;33.92;100630.88;5131307;27;20045;-64
2021/08/10 09:36:29;;;;;;;5.68;1.67;;;;;;;33.05;34.26;100636.16;5129593;27;20023;-64
2021/08/10 09:38:57;;;;;;;2.90;1.20;;;;;;;33.05;33.66;100636.16;5131521;27;20027;-64
2021/08/10 09:41:23;;;;;;;2.83;1.67;;;;;;;33.01;33.36;100630.28;5131395;27;20019;-63
2021/08/10 09:43:50;;;;;;;2.42;1.45;;;;;;;33.01;33.34;100633.06;5131813;27;20111;-63
2021/08/10 09:46:22;;;;;;;2.80;1.50;;;;;;;33.01;33.48;100621.94;5132967;27;20491;-64
2021/08/10 09:48:57;;;;;;;2.05;1.58;;;;;;;33.03;34.00;100624.47;5132835;27;20110;-64
2021/08/10 09:51:28;;;;;;;3.60;1.60;;;;;;;32.98;32.92;100619.72;5131147;27;20027;-64
2021/08/10 09:53:59;;;;;;;5.25;1.65;;;;;;;32.97;33.08;100614.44;5132677;27;20023;-64
2021/08/10 09:56:53;;;;;;;2.45;1.60;;;;;;;32.97;33.89;100609.72;5131437;27;20048;-64
2021/08/10 09:59:28;;;;;;;2.80;1.60;;;;;;;32.97;33.82;100608.88;5132588;27;20080;-64
2021/08/10 10:01:58;;;;;;;3.17;1.58;;;;;;;32.96;33.66;100604.44;5132496;27;20054;-64
2021/08/10 10:04:29;;;;;;;2.53;1.48;;;;;;;33.00;33.75;100613.88;5132292;27;20023;-64
2021/08/10 10:07:08;;;;;;;5.43;1.70;;;;;;;32.95;33.91;100602.78;5132133;27;20456;-64
2021/08/10 10:09:34;;;;;;;4.35;1.45;;;;;;;32.93;33.69;100607.75;5131166;27;20031;-64
2021/08/10 10:12:01;;;;;;;4.60;1.50;;;;;;;32.95;32.87;100613.88;5132199;27;20386;-64
2021/08/10 10:14:28;;;;;;;2.65;1.75;;;;;;;32.95;33.43;100614.72;5132068;27;20068;-65
2021/08/10 10:16:54;;;;;;;3.63;1.50;;;;;;;32.94;33.10;100615.81;5132257;27;20382;-64
2021/08/10 10:19:21;;;;;;;3.45;1.70;;;;;;;32.96;33.05;100616.41;5132030;27;20042;-64
2021/08/10 10:21:48;;;;;;;5.30;1.80;;;;;;;32.97;33.06;100620.00;5131796;27;20015;-64
2021/08/10 10:24:15;;;;;;;1.40;1.30;;;;;;;32.96;32.73;100616.41;5132313;27;20027;-64
2021/08/10 10:26:44;;;;;;;5.40;1.83;;;;;;;32.92;33.43;100600.53;5132027;27;20047;-63
2021/08/10 10:29:11;;;;;;;3.63;1.65;;;;;;;32.96;33.29;100607.22;5132292;27;20092;-64
2021/08/10 10:31:37;;;;;;;1.90;1.70;;;;;;;32.82;32.85;100586.59;5130436;27;20100;-65
2021/08/10 10:34:04;;;;;;;2.08;1.65;;;;;;;32.93;32.32;100605.81;5131808;27;20051;-63
2021/08/10 10:36:30;;;;;;;1.40;1.30;;;;;;;32.79;31.70;100581.56;5131798;27;20142;-64
2021/08/10 10:38:58;;;;;;;1.92;1.73;;;;;;;32.84;32.03;100587.13;5131757;27;20525;-65
2021/08/10 10:41:29;;;;;;;2.00;1.80;;;;;;;32.84;31.82;100603.78;5131580;27;20027;-64
2021/08/10 10:43:54;;;;;;;2.85;1.65;;;;;;;32.82;31.65;100606.03;5131846;27;20480;-64
2021/08/10 10:46:49;;;;;;;2.53;1.50;;;;;;;32.77;32.56;100594.88;5131826;27;20043;-64
2021/08/10 10:49:27;;;;;;;2.35;1.50;;;;;;;32.78;32.65;100589.06;5122441;27;20445;-64
2021/08/10 10:52:08;;;;;;;1.80;1.40;;;;;;;32.78;32.01;100591.03;5130294;27;20011;-64
2021/08/10 10:54:43;;;;;;;3.03;1.50;;;;;;;32.78;32.45;100580.72;5129955;27;20389;-64
2021/08/10 10:57:29;;;;;;;2.70;1.67;;;;;;;32.75;31.97;100586.00;5131146;27;20030;-65
2021/08/10 11:00:19;;;;;;;1.70;1.60;;;;;;;32.78;31.97;100586.28;5131180;27;20023;-64
2021/08/10 11:03:07;;;;;;;3.30;2.00;;;;;;;32.77;31.91;100583.78;5131394;27;20039;-62
2021/08/10 11:05:33;;;;;;;3.05;1.70;;;;;;;32.76;31.70;100588.53;5130706;27;20474;-62
2021/08/10 11:08:00;;;;;;;3.53;1.67;;;;;;;32.76;31.52;100585.75;5131609;27;20027;-65
2021/08/10 11:10:48;;;;;;;5.30;2.10;;;;;;;32.68;30.99;100580.69;5130905;27;20027;-64
2021/08/10 11:13:34;;;;;;;3.22;1.65;;;;;;;32.66;31.16;100579.31;5131181;27;20052;-64
2021/08/10 11:16:00;;;;;;;3.15;1.70;;;;;;;32.57;32.22;100571.47;5164159;27;20394;-64
2021/08/10 11:18:27;;;;;;;3.47;1.45;;;;;;;32.62;32.32;100575.41;5130141;27;20023;-65
2021/08/10 11:20:52;;;;;;;2.17;1.77;;;;;;;32.59;32.13;100576.78;5129407;27;20019;-64
2021/08/10 11:23:19;;;;;;;2.72;2.28;;;;;;;32.58;31.66;100575.09;5131167;27;20027;-64
2021/08/10 11:25:49;;;;;;;3.30;1.90;;;;;;;32.63;31.05;100572.38;5130836;27;20531;-64
2021/08/10 11:28:23;;;;;;;2.72;1.77;;;;;;;32.64;30.28;100574.03;5129687;27;20038;-64